sensor_id;sensor_type;location;lat;lon;timestamp;pressure;altitude;pressure_sealevel;temperature;humidity
43312;BME280;30041;48.300;16.352;2023-07-16T00:01:52;99210.97;;;26.27;50.95
43312;BME280;30041;48.300;16.352;2023-07-16T00:04:18;99214.53;;;26.28;51.11
43312;BME280;30041;48.300;16.352;2023-07-16T00:06:43;99209.09;;;26.28;51.07
43312;BME280;30041;48.300;16.352;2023-07-16T00:09:09;99206.66;;;26.26;50.95
43312;BME280;30041;48.300;16.352;2023-07-16T00:11:34;99208.28;;;26.27;51.10
43312;BME280;30041;48.300;16.352;2023-07-16T00:14:00;99208.28;;;26.27;51.00
43312;BME280;30041;48.300;16.352;2023-07-16T00:16:25;99201.75;;;26.28;50.83
43312;BME280;30041;48.300;16.352;2023-07-16T00:18:51;99210.97;;;26.27;51.18
43312;BME280;30041;48.300;16.352;2023-07-16T00:21:16;99209.66;;;26.25;51.10
43312;BME280;30041;48.300;16.352;2023-07-16T00:23:42;99219.72;;;26.24;51.27
43312;BME280;30041;48.300;16.352;2023-07-16T00:26:07;99217.00;;;26.24;51.26
43312;BME280;30041;48.300;16.352;2023-07-16T00:28:33;99212.38;;;26.25;51.03
43312;BME280;30041;48.300;16.352;2023-07-16T00:30:58;99218.59;;;26.25;50.97
43312;BME280;30041;48.300;16.352;2023-07-16T00:33:24;99224.03;;;26.25;51.26
43312;BME280;30041;48.300;16.352;2023-07-16T00:35:50;99224.88;;;26.26;51.23
43312;BME280;30041;48.300;16.352;2023-07-16T00:38:19;99216.19;;;26.24;50.90
43312;BME280;30041;48.300;16.352;2023-07-16T00:40:45;99219.16;;;26.22;51.11
43312;BME280;30041;48.300;16.352;2023-07-16T00:43:14;99214.28;;;26.24;51.32
43312;BME280;30041;48.300;16.352;2023-07-16T00:45:40;99218.59;;;26.25;51.12
43312;BME280;30041;48.300;16.352;2023-07-16T00:48:07;99208.03;;;26.24;51.13
43312;BME280;30041;48.300;16.352;2023-07-16T00:50:34;99209.94;;;26.23;51.10
43312;BME280;30041;48.300;16.352;2023-07-16T00:53:02;99209.66;;;26.25;51.12
43312;BME280;30041;48.300;16.352;2023-07-16T00:55:29;99209.94;;;26.23;50.96
43312;BME280;30041;48.300;16.352;2023-07-16T00:57:59;99203.69;;;26.23;51.00
43312;BME280;30041;48.300;16.352;2023-07-16T01:00:25;99201.78;;;26.23;51.00
43312;BME280;30041;48.300;16.352;2023-07-16T01:02:51;99201.78;;;26.23;51.12
43312;BME280;30041;48.300;16.352;2023-07-16T01:05:17;99207.50;;;26.22;50.95
43312;BME280;30041;48.300;16.352;2023-07-16T01:07:50;99203.16;;;26.21;51.15
43312;BME280;30041;48.300;16.352;2023-07-16T01:10:17;99215.91;;;26.20;51.13
43312;BME280;30041;48.300;16.352;2023-07-16T01:12:43;99213.19;;;26.20;51.18
43312;BME280;30041;48.300;16.352;2023-07-16T01:15:09;99213.19;;;26.20;50.98
43312;BME280;30041;48.300;16.352;2023-07-16T01:17:35;99212.94;;;26.22;50.92
43312;BME280;30041;48.300;16.352;2023-07-16T01:20:00;99214.84;;;26.21;50.89
43312;BME280;30041;48.300;16.352;2023-07-16T01:23:03;99207.25;;;26.18;50.87
43312;BME280;30041;48.300;16.352;2023-07-16T01:26:05;99198.81;;;26.20;50.81
43312;BME280;30041;48.300;16.352;2023-07-16T01:29:09;99202.91;;;26.17;50.88
43312;BME280;30041;48.300;16.352;2023-07-16T01:31:40;99195.00;;;26.21;50.61
43312;BME280;30041;48.300;16.352;2023-07-16T01:34:06;99200.72;;;26.19;51.00
43312;BME280;30041;48.300;16.352;2023-07-16T01:36:36;99192.59;;;26.19;51.15
43312;BME280;30041;48.300;16.352;2023-07-16T01:39:04;99192.28;;;26.21;50.92
43312;BME280;30041;48.300;16.352;2023-07-16T01:41:30;99192.59;;;26.19;50.99
43312;BME280;30041;48.300;16.352;2023-07-16T01:43:55;99190.13;;;26.18;50.91
43312;BME280;30041;48.300;16.352;2023-07-16T01:46:21;99188.22;;;26.18;51.02
43312;BME280;30041;48.300;16.352;2023-07-16T01:48:47;99186.31;;;26.19;51.02
43312;BME280;30041;48.300;16.352;2023-07-16T01:51:12;99187.94;;;26.20;50.70
43312;BME280;30041;48.300;16.352;2023-07-16T01:53:38;99187.16;;;26.19;50.68
43312;BME280;30041;48.300;16.352;2023-07-16T01:56:03;99185.50;;;26.18;51.01
43312;BME280;30041;48.300;16.352;2023-07-16T01:58:29;99186.31;;;26.19;50.86
43312;BME280;30041;48.300;16.352;2023-07-16T02:00:54;99180.06;;;26.18;50.74
43312;BME280;30041;48.300;16.352;2023-07-16T02:03:20;99196.38;;;26.18;50.94
43312;BME280;30041;48.300;16.352;2023-07-16T02:05:46;99203.44;;;26.19;50.79
43312;BME280;30041;48.300;16.352;2023-07-16T02:08:11;99205.31;;;26.19;51.16
43312;BME280;30041;48.300;16.352;2023-07-16T02:10:37;99204.53;;;26.18;51.10
43312;BME280;30041;48.300;16.352;2023-07-16T02:13:02;99206.44;;;26.18;50.97
43312;BME280;30041;48.300;16.352;2023-07-16T02:15:28;99203.72;;;26.18;50.94
43312;BME280;30041;48.300;16.352;2023-07-16T02:17:53;99213.78;;;26.17;51.05
43312;BME280;30041;48.300;16.352;2023-07-16T02:20:18;99220.00;;;26.18;51.27
43312;BME280;30041;48.300;16.352;2023-07-16T02:22:44;99224.63;;;26.17;50.88
43312;BME280;30041;48.300;16.352;2023-07-16T02:25:09;99220.81;;;26.18;51.16
43312;BME280;30041;48.300;16.352;2023-07-16T02:27:35;99232.78;;;26.17;50.92
43312;BME280;30041;48.300;16.352;2023-07-16T02:30:01;99226.53;;;26.17;50.87
43312;BME280;30041;48.300;16.352;2023-07-16T02:32:26;99230.06;;;26.17;51.01
43312;BME280;30041;48.300;16.352;2023-07-16T02:34:54;99239.03;;;26.18;51.10
43312;BME280;30041;48.300;16.352;2023-07-16T02:37:22;99229.25;;;26.17;50.94
43312;BME280;30041;48.300;16.352;2023-07-16T02:39:47;99223.00;;;26.16;50.85
43312;BME280;30041;48.300;16.352;2023-07-16T02:42:13;99226.53;;;26.17;51.08
43312;BME280;30041;48.300;16.352;2023-07-16T02:44:38;99236.56;;;26.16;51.27
43312;BME280;30041;48.300;16.352;2023-07-16T02:47:04;99232.78;;;26.17;50.75
43312;BME280;30041;48.300;16.352;2023-07-16T02:49:29;99236.31;;;26.18;51.04
43312;BME280;30041;48.300;16.352;2023-07-16T02:51:58;99242.00;;;26.16;51.05
43312;BME280;30041;48.300;16.352;2023-07-16T02:54:24;99234.97;;;26.15;50.99
43312;BME280;30041;48.300;16.352;2023-07-16T02:56:49;99239.28;;;26.16;51.03
43312;BME280;30041;48.300;16.352;2023-07-16T02:59:15;99240.13;;;26.17;50.74
43312;BME280;30041;48.300;16.352;2023-07-16T03:01:40;99239.28;;;26.16;51.12
43312;BME280;30041;48.300;16.352;2023-07-16T03:04:06;99244.72;;;26.16;50.92
43312;BME280;30041;48.300;16.352;2023-07-16T03:06:31;99250.69;;;26.18;51.00
43312;BME280;30041;48.300;16.352;2023-07-16T03:08:57;99252.88;;;26.16;50.91
43312;BME280;30041;48.300;16.352;2023-07-16T03:11:22;99263.72;;;26.16;50.95
43312;BME280;30041;48.300;16.352;2023-07-16T03:13:48;99270.00;;;26.17;50.94
43312;BME280;30041;48.300;16.352;2023-07-16T03:16:14;99268.91;;;26.18;51.00
43312;BME280;30041;48.300;16.352;2023-07-16T03:18:39;99267.28;;;26.17;50.89
43312;BME280;30041;48.300;16.352;2023-07-16T03:21:05;99271.88;;;26.16;51.04
43312;BME280;30041;48.300;16.352;2023-07-16T03:23:30;99274.06;;;26.14;50.98
43312;BME280;30041;48.300;16.352;2023-07-16T03:25:56;99280.03;;;26.16;51.05
43312;BME280;30041;48.300;16.352;2023-07-16T03:28:21;99276.78;;;26.14;51.08
43312;BME280;30041;48.300;16.352;2023-07-16T03:30:48;99278.41;;;26.15;51.25
43312;BME280;30041;48.300;16.352;2023-07-16T03:33:14;99279.75;;;26.18;51.29
43312;BME280;30041;48.300;16.352;2023-07-16T03:35:43;99283.03;;;26.15;51.12
43312;BME280;30041;48.300;16.352;2023-07-16T03:38:08;99289.28;;;26.15;51.11
43312;BME280;30041;48.300;16.352;2023-07-16T03:40:34;99298.50;;;26.14;51.13
43312;BME280;30041;48.300;16.352;2023-07-16T03:42:59;99303.13;;;26.14;51.22
43312;BME280;30041;48.300;16.352;2023-07-16T03:45:25;99299.34;;;26.15;51.05
43312;BME280;30041;48.300;16.352;2023-07-16T03:47:50;99295.78;;;26.14;51.23
43312;BME280;30041;48.300;16.352;2023-07-16T03:50:16;99311.00;;;26.15;50.96
43312;BME280;30041;48.300;16.352;2023-07-16T03:52:44;99312.91;;;26.15;51.13
43312;BME280;30041;48.300;16.352;2023-07-16T03:55:10;99313.19;;;26.13;51.08
43312;BME280;30041;48.300;16.352;2023-07-16T03:57:35;99328.38;;;26.14;51.23
43312;BME280;30041;48.300;16.352;2023-07-16T04:00:03;99321.06;;;26.15;51.02
43312;BME280;30041;48.300;16.352;2023-07-16T04:02:28;99331.09;;;26.14;50.88
43312;BME280;30041;48.300;16.352;2023-07-16T04:04:54;99325.66;;;26.14;51.09
43312;BME280;30041;48.300;16.352;2023-07-16T04:07:19;99329.22;;;26.15;51.06
43312;BME280;30041;48.300;16.352;2023-07-16T04:09:45;99326.22;;;26.11;51.18
43312;BME280;30041;48.300;16.352;2023-07-16T04:12:10;99328.69;;;26.13;51.35
43312;BME280;30041;48.300;16.352;2023-07-16T04:14:36;99334.09;;;26.13;51.40
43312;BME280;30041;48.300;16.352;2023-07-16T04:17:01;99343.06;;;26.13;51.07
43312;BME280;30041;48.300;16.352;2023-07-16T04:19:28;99352.81;;;26.14;51.41
43312;BME280;30041;48.300;16.352;2023-07-16T04:21:53;99367.50;;;26.13;51.24
43312;BME280;30041;48.300;16.352;2023-07-16T04:24:18;99370.22;;;26.13;50.96
43312;BME280;30041;48.300;16.352;2023-07-16T04:26:44;99371.03;;;26.14;51.11
43312;BME280;30041;48.300;16.352;2023-07-16T04:29:09;99370.22;;;26.13;51.03
43312;BME280;30041;48.300;16.352;2023-07-16T04:31:35;99369.13;;;26.14;51.28
43312;BME280;30041;48.300;16.352;2023-07-16T04:34:00;99378.38;;;26.13;51.39
43312;BME280;30041;48.300;16.352;2023-07-16T04:36:26;99396.56;;;26.13;51.24
43312;BME280;30041;48.300;16.352;2023-07-16T04:38:51;99401.72;;;26.14;51.28
43312;BME280;30041;48.300;16.352;2023-07-16T04:41:17;99403.34;;;26.15;51.16
43312;BME280;30041;48.300;16.352;2023-07-16T04:43:43;99405.53;;;26.13;51.27
43312;BME280;30041;48.300;16.352;2023-07-16T04:46:08;99433.75;;;26.12;51.08
43312;BME280;30041;48.300;16.352;2023-07-16T04:48:34;99478.59;;;26.15;51.37
43312;BME280;30041;48.300;16.352;2023-07-16T04:50:59;99476.94;;;26.14;51.19
43312;BME280;30041;48.300;16.352;2023-07-16T04:53:25;99490.78;;;26.12;51.25
43312;BME280;30041;48.300;16.352;2023-07-16T04:55:50;99479.94;;;26.12;51.39
43312;BME280;30041;48.300;16.352;2023-07-16T04:58:16;99476.16;;;26.13;51.47
43312;BME280;30041;48.300;16.352;2023-07-16T05:00:41;99473.44;;;26.13;51.34
43312;BME280;30041;48.300;16.352;2023-07-16T05:03:07;99497.88;;;26.13;51.36
43312;BME280;30041;48.300;16.352;2023-07-16T05:05:33;99500.59;;;26.13;51.20
43312;BME280;30041;48.300;16.352;2023-07-16T05:07:58;99516.06;;;26.13;51.15
43312;BME280;30041;48.300;16.352;2023-07-16T05:10:24;99526.09;;;26.12;51.39
43312;BME280;30041;48.300;16.352;2023-07-16T05:12:49;99532.09;;;26.14;51.18
43312;BME280;30041;48.300;16.352;2023-07-16T05:15:15;99526.66;;;26.14;51.03
43312;BME280;30041;48.300;16.352;2023-07-16T05:17:41;99529.38;;;26.14;51.35
43312;BME280;30041;48.300;16.352;2023-07-16T05:20:07;99537.50;;;26.14;51.44
43312;BME280;30041;48.300;16.352;2023-07-16T05:22:35;99541.34;;;26.13;51.32
43312;BME280;30041;48.300;16.352;2023-07-16T05:25:01;99536.19;;;26.17;53.96
43312;BME280;30041;48.300;16.352;2023-07-16T05:27:27;99544.59;;;26.15;54.60
43312;BME280;30041;48.300;16.352;2023-07-16T05:29:53;99561.69;;;26.11;55.53
43312;BME280;30041;48.300;16.352;2023-07-16T05:32:19;99579.34;;;26.03;56.11
43312;BME280;30041;48.300;16.352;2023-07-16T05:34:44;99572.84;;;26.04;56.33
43312;BME280;30041;48.300;16.352;2023-07-16T05:37:10;99578.22;;;25.99;56.36
43312;BME280;30041;48.300;16.352;2023-07-16T05:39:35;99584.75;;;25.98;56.39
43312;BME280;30041;48.300;16.352;2023-07-16T05:42:01;99587.47;;;25.98;56.70
43312;BME280;30041;48.300;16.352;2023-07-16T05:44:26;99588.28;;;25.98;56.66
43312;BME280;30041;48.300;16.352;2023-07-16T05:46:52;99586.38;;;25.99;56.71
43312;BME280;30041;48.300;16.352;2023-07-16T05:49:17;99587.47;;;25.98;56.37
43312;BME280;30041;48.300;16.352;2023-07-16T05:51:43;99591.81;;;25.99;56.68
43312;BME280;30041;48.300;16.352;2023-07-16T05:54:08;99589.09;;;25.99;56.39
43312;BME280;30041;48.300;16.352;2023-07-16T05:56:34;99587.22;;;25.99;56.52
43312;BME280;30041;48.300;16.352;2023-07-16T05:58:59;99594.00;;;26.12;55.82
43312;BME280;30041;48.300;16.352;2023-07-16T06:01:24;99593.75;;;26.08;55.74
43312;BME280;30041;48.300;16.352;2023-07-16T06:03:50;99583.94;;;26.02;55.94
43312;BME280;30041;48.300;16.352;2023-07-16T06:06:15;99583.16;;;25.97;55.95
43312;BME280;30041;48.300;16.352;2023-07-16T06:08:41;99586.94;;;25.96;56.09
43312;BME280;30041;48.300;16.352;2023-07-16T06:11:06;99588.28;;;25.98;56.02
43312;BME280;30041;48.300;16.352;2023-07-16T06:13:32;99594.00;;;25.97;56.14
43312;BME280;30041;48.300;16.352;2023-07-16T06:15:57;99603.78;;;25.98;55.86
43312;BME280;30041;48.300;16.352;2023-07-16T06:18:23;99596.97;;;25.95;55.83
43312;BME280;30041;48.300;16.352;2023-07-16T06:20:48;99602.16;;;25.97;55.81
43312;BME280;30041;48.300;16.352;2023-07-16T06:23:14;99591.00;;;25.93;55.89
43312;BME280;30041;48.300;16.352;2023-07-16T06:25:39;99604.88;;;25.97;55.53
43312;BME280;30041;48.300;16.352;2023-07-16T06:28:05;99607.03;;;25.95;55.57
43312;BME280;30041;48.300;16.352;2023-07-16T06:30:30;99616.81;;;25.96;55.38
43312;BME280;30041;48.300;16.352;2023-07-16T06:32:56;99615.44;;;25.98;55.12
43312;BME280;30041;48.300;16.352;2023-07-16T06:35:21;99623.88;;;25.97;55.21
43312;BME280;30041;48.300;16.352;2023-07-16T06:37:47;99616.00;;;25.95;55.22
43312;BME280;30041;48.300;16.352;2023-07-16T06:40:12;99620.06;;;25.98;55.46
43312;BME280;30041;48.300;16.352;2023-07-16T06:42:38;99622.78;;;25.98;55.39
43312;BME280;30041;48.300;16.352;2023-07-16T06:45:06;99622.53;;;25.99;55.44
43312;BME280;30041;48.300;16.352;2023-07-16T06:47:32;99620.88;;;25.98;55.38
43312;BME280;30041;48.300;16.352;2023-07-16T06:49:58;99617.09;;;25.99;55.71
43312;BME280;30041;48.300;16.352;2023-07-16T06:52:23;99621.69;;;25.99;56.02
43312;BME280;30041;48.300;16.352;2023-07-16T06:54:49;99626.03;;;26.00;55.99
43312;BME280;30041;48.300;16.352;2023-07-16T06:57:15;99625.78;;;26.01;55.75
43312;BME280;30041;48.300;16.352;2023-07-16T06:59:40;99625.50;;;26.03;56.04
43312;BME280;30041;48.300;16.352;2023-07-16T07:02:06;99629.88;;;26.04;55.77
43312;BME280;30041;48.300;16.352;2023-07-16T07:04:31;99633.13;;;26.06;55.97
43312;BME280;30041;48.300;16.352;2023-07-16T07:06:57;99622.25;;;26.06;55.90
43312;BME280;30041;48.300;16.352;2023-07-16T07:09:22;99619.28;;;26.13;55.62
43312;BME280;30041;48.300;16.352;2023-07-16T07:11:48;99623.06;;;26.12;55.87
43312;BME280;30041;48.300;16.352;2023-07-16T07:14:16;99620.09;;;26.08;55.61
43312;BME280;30041;48.300;16.352;2023-07-16T07:16:41;99628.22;;;26.03;55.46
43312;BME280;30041;48.300;16.352;2023-07-16T07:19:08;99634.75;;;26.07;55.61
43312;BME280;30041;48.300;16.352;2023-07-16T07:21:35;99629.31;;;26.07;55.07
43312;BME280;30041;48.300;16.352;2023-07-16T07:24:01;99640.19;;;26.07;55.26
43312;BME280;30041;48.300;16.352;2023-07-16T07:26:27;99633.94;;;26.06;54.90
43312;BME280;30041;48.300;16.352;2023-07-16T07:28:56;99629.31;;;26.07;54.93
43312;BME280;30041;48.300;16.352;2023-07-16T07:31:21;99635.84;;;26.06;54.91
43312;BME280;30041;48.300;16.352;2023-07-16T07:33:46;99627.16;;;26.09;54.40
43312;BME280;30041;48.300;16.352;2023-07-16T07:36:12;99632.56;;;26.09;54.46
43312;BME280;30041;48.300;16.352;2023-07-16T07:38:37;99638.28;;;26.07;54.85
43312;BME280;30041;48.300;16.352;2023-07-16T07:41:05;99642.38;;;26.15;54.38
43312;BME280;30041;48.300;16.352;2023-07-16T07:43:31;99637.50;;;26.17;54.05
43312;BME280;30041;48.300;16.352;2023-07-16T07:45:56;99652.44;;;26.20;53.98
43312;BME280;30041;48.300;16.352;2023-07-16T07:48:22;99645.34;;;26.19;53.95
43312;BME280;30041;48.300;16.352;2023-07-16T07:50:47;99650.78;;;26.19;54.07
43312;BME280;30041;48.300;16.352;2023-07-16T07:53:12;99641.81;;;26.18;53.68
43312;BME280;30041;48.300;16.352;2023-07-16T07:55:38;99652.44;;;26.20;53.72
43312;BME280;30041;48.300;16.352;2023-07-16T07:58:04;99653.50;;;26.19;53.82
43312;BME280;30041;48.300;16.352;2023-07-16T08:00:29;99649.72;;;26.25;53.33
43312;BME280;30041;48.300;16.352;2023-07-16T08:02:55;99654.38;;;26.35;53.25
43312;BME280;30041;48.300;16.352;2023-07-16T08:05:20;99651.66;;;26.35;52.90
43312;BME280;30041;48.300;16.352;2023-07-16T08:07:46;99659.81;;;26.40;53.11
43312;BME280;30041;48.300;16.352;2023-07-16T08:10:11;99655.72;;;26.42;52.64
43312;BME280;30041;48.300;16.352;2023-07-16T08:12:37;99657.09;;;26.40;52.89
43312;BME280;30041;48.300;16.352;2023-07-16T08:15:03;99658.44;;;26.42;52.67
43312;BME280;30041;48.300;16.352;2023-07-16T08:17:28;99657.63;;;26.42;52.61
43312;BME280;30041;48.300;16.352;2023-07-16T08:19:54;99651.66;;;26.40;52.76
43312;BME280;30041;48.300;16.352;2023-07-16T08:22:19;99660.31;;;26.37;52.77
43312;BME280;30041;48.300;16.352;2023-07-16T08:24:45;99660.31;;;26.37;52.77
43312;BME280;30041;48.300;16.352;2023-07-16T08:27:10;99664.69;;;26.38;52.34
43312;BME280;30041;48.300;16.352;2023-07-16T08:29:36;99664.13;;;26.36;52.42
43312;BME280;30041;48.300;16.352;2023-07-16T08:32:02;99675.28;;;26.34;52.18
43312;BME280;30041;48.300;16.352;2023-07-16T08:34:28;99678.53;;;26.36;52.38
43312;BME280;30041;48.300;16.352;2023-07-16T08:36:53;99683.72;;;26.38;51.96
43312;BME280;30041;48.300;16.352;2023-07-16T08:39:19;99688.63;;;26.51;52.39
43312;BME280;30041;48.300;16.352;2023-07-16T08:41:44;99681.03;;;26.58;52.07
43312;BME280;30041;48.300;16.352;2023-07-16T08:44:13;99679.13;;;26.59;52.88
43312;BME280;30041;48.300;16.352;2023-07-16T08:46:39;99671.81;;;26.59;51.82
43312;BME280;30041;48.300;16.352;2023-07-16T08:49:07;99686.75;;;26.62;52.24
43312;BME280;30041;48.300;16.352;2023-07-16T08:51:34;99683.22;;;26.61;51.98
43312;BME280;30041;48.300;16.352;2023-07-16T08:54:00;99684.84;;;26.62;51.19
43312;BME280;30041;48.300;16.352;2023-07-16T08:56:26;99687.56;;;26.62;51.49
43312;BME280;30041;48.300;16.352;2023-07-16T08:58:54;99691.91;;;26.63;51.26
43312;BME280;30041;48.300;16.352;2023-07-16T09:01:20;99692.47;;;26.65;50.88
43312;BME280;30041;48.300;16.352;2023-07-16T09:03:46;99694.38;;;26.65;50.60
43312;BME280;30041;48.300;16.352;2023-07-16T09:06:11;99687.03;;;26.65;50.42
43312;BME280;30041;48.300;16.352;2023-07-16T09:08:37;99690.84;;;26.64;50.31
43312;BME280;30041;48.300;16.352;2023-07-16T09:11:02;99691.94;;;26.68;50.16
43312;BME280;30041;48.300;16.352;2023-07-16T09:13:29;99695.19;;;26.70;49.98
43312;BME280;30041;48.300;16.352;2023-07-16T09:15:58;99688.38;;;26.68;49.81
43312;BME280;30041;48.300;16.352;2023-07-16T09:18:26;99694.66;;;26.68;50.20
43312;BME280;30041;48.300;16.352;2023-07-16T09:20:59;99685.41;;;26.69;49.85
43312;BME280;30041;48.300;16.352;2023-07-16T09:23:25;99685.41;;;26.69;50.29
43312;BME280;30041;48.300;16.352;2023-07-16T09:25:51;99690.31;;;26.73;50.22
43312;BME280;30041;48.300;16.352;2023-07-16T09:28:18;99681.31;;;26.72;50.11
43312;BME280;30041;48.300;16.352;2023-07-16T09:30:45;99692.75;;;26.84;49.75
43312;BME280;30041;48.300;16.352;2023-07-16T09:33:16;99699.25;;;26.99;49.53
43312;BME280;30041;48.300;16.352;2023-07-16T09:35:43;99691.63;;;27.06;49.29
43312;BME280;30041;48.300;16.352;2023-07-16T09:38:12;99704.44;;;27.10;49.20
43312;BME280;30041;48.300;16.352;2023-07-16T09:40:40;99699.78;;;27.16;49.48
43312;BME280;30041;48.300;16.352;2023-07-16T09:43:06;99690.84;;;27.10;49.91
43312;BME280;30041;48.300;16.352;2023-07-16T09:45:31;99697.38;;;27.04;49.62
43312;BME280;30041;48.300;16.352;2023-07-16T09:47:57;99695.19;;;26.96;49.85
43312;BME280;30041;48.300;16.352;2023-07-16T09:50:29;99689.19;;;26.94;50.07
43312;BME280;30041;48.300;16.352;2023-07-16T09:52:56;99699.53;;;26.92;49.82
43312;BME280;30041;48.300;16.352;2023-07-16T09:55:22;99702.00;;;26.94;49.62
43312;BME280;30041;48.300;16.352;2023-07-16T09:57:48;99691.91;;;26.94;49.35
43312;BME280;30041;48.300;16.352;2023-07-16T10:00:16;99692.72;;;26.95;49.67
43312;BME280;30041;48.300;16.352;2023-07-16T10:02:43;99692.47;;;26.96;49.15
43312;BME280;30041;48.300;16.352;2023-07-16T10:05:16;99687.28;;;26.95;49.25
43312;BME280;30041;48.300;16.352;2023-07-16T10:07:49;99694.38;;;26.96;49.48
43312;BME280;30041;48.300;16.352;2023-07-16T10:10:15;99692.47;;;26.96;49.56
43312;BME280;30041;48.300;16.352;2023-07-16T10:12:53;99692.47;;;26.96;49.51
43312;BME280;30041;48.300;16.352;2023-07-16T10:15:25;99695.19;;;26.96;49.33
43312;BME280;30041;48.300;16.352;2023-07-16T10:17:51;99694.13;;;26.97;49.34
43312;BME280;30041;48.300;16.352;2023-07-16T10:20:17;99691.09;;;26.99;49.27
43312;BME280;30041;48.300;16.352;2023-07-16T10:22:46;99693.81;;;26.99;49.62
43312;BME280;30041;48.300;16.352;2023-07-16T10:27:46;99686.47;;;26.99;49.28
43312;BME280;30041;48.300;16.352;2023-07-16T10:30:12;99683.75;;;26.99;49.62
43312;BME280;30041;48.300;16.352;2023-07-16T10:32:38;99681.84;;;27.05;49.39
43312;BME280;30041;48.300;16.352;2023-07-16T10:35:05;99692.47;;;27.06;49.18
43312;BME280;30041;48.300;16.352;2023-07-16T10:37:31;99687.31;;;27.00;49.12
43312;BME280;30041;48.300;16.352;2023-07-16T10:39:58;99680.50;;;26.97;49.40
43312;BME280;30041;48.300;16.352;2023-07-16T10:42:26;99684.31;;;26.96;49.87
43312;BME280;30041;48.300;16.352;2023-07-16T10:44:54;99687.84;;;27.02;49.91
43312;BME280;30041;48.300;16.352;2023-07-16T10:47:22;99682.94;;;27.09;49.49
43312;BME280;30041;48.300;16.352;2023-07-16T10:49:48;99681.56;;;27.11;49.40
43312;BME280;30041;48.300;16.352;2023-07-16T10:52:15;99681.56;;;27.11;49.73
43312;BME280;30041;48.300;16.352;2023-07-16T10:54:41;99672.59;;;27.06;50.00
43312;BME280;30041;48.300;16.352;2023-07-16T10:57:07;99684.59;;;27.00;50.16
43312;BME280;30041;48.300;16.352;2023-07-16T10:59:32;99681.03;;;26.94;50.45
43312;BME280;30041;48.300;16.352;2023-07-16T11:01:58;99671.78;;;26.90;50.10
43312;BME280;30041;48.300;16.352;2023-07-16T11:04:24;99680.50;;;26.87;50.17
43312;BME280;30041;48.300;16.352;2023-07-16T11:06:52;99672.09;;;26.88;49.72
43312;BME280;30041;48.300;16.352;2023-07-16T11:09:18;99672.34;;;26.87;49.93
43312;BME280;30041;48.300;16.352;2023-07-16T11:11:43;99666.91;;;26.87;49.86
43312;BME280;30041;48.300;16.352;2023-07-16T11:14:09;99674.25;;;26.86;49.92
43312;BME280;30041;48.300;16.352;2023-07-16T11:16:35;99667.97;;;26.86;49.89
43312;BME280;30041;48.300;16.352;2023-07-16T11:19:04;99673.41;;;26.86;50.35
43312;BME280;30041;48.300;16.352;2023-07-16T11:21:31;99673.41;;;26.86;50.22
43312;BME280;30041;48.300;16.352;2023-07-16T11:24:08;99664.19;;;26.82;50.53
43312;BME280;30041;48.300;16.352;2023-07-16T11:26:33;99664.19;;;26.87;50.38
43312;BME280;30041;48.300;16.352;2023-07-16T11:28:59;99663.91;;;26.83;50.16
43312;BME280;30041;48.300;16.352;2023-07-16T11:31:24;99664.19;;;26.87;50.27
43312;BME280;30041;48.300;16.352;2023-07-16T11:33:50;99663.38;;;26.86;50.26
43312;BME280;30041;48.300;16.352;2023-07-16T11:36:16;99664.47;;;26.85;50.25
43312;BME280;30041;48.300;16.352;2023-07-16T11:38:42;99663.94;;;26.88;50.52
43312;BME280;30041;48.300;16.352;2023-07-16T11:41:08;99669.06;;;26.90;50.56
43312;BME280;30041;48.300;16.352;2023-07-16T11:43:37;99657.13;;;26.91;50.25
43312;BME280;30041;48.300;16.352;2023-07-16T11:46:15;99659.03;;;26.90;50.46
43312;BME280;30041;48.300;16.352;2023-07-16T11:48:41;99653.06;;;26.88;50.62
43312;BME280;30041;48.300;16.352;2023-07-16T11:51:09;99659.03;;;26.90;50.67
43312;BME280;30041;48.300;16.352;2023-07-16T11:53:34;99665.53;;;26.89;50.59
43312;BME280;30041;48.300;16.352;2023-07-16T11:56:00;99660.38;;;26.88;50.43
43312;BME280;30041;48.300;16.352;2023-07-16T11:58:25;99673.16;;;26.87;50.54
43312;BME280;30041;48.300;16.352;2023-07-16T12:00:53;99659.84;;;26.91;50.69
43312;BME280;30041;48.300;16.352;2023-07-16T12:03:19;99656.03;;;26.92;50.66
43312;BME280;30041;48.300;16.352;2023-07-16T12:05:47;99655.75;;;26.94;50.45
43312;BME280;30041;48.300;16.352;2023-07-16T12:08:14;99659.84;;;26.91;50.62
43312;BME280;30041;48.300;16.352;2023-07-16T12:10:40;99658.47;;;26.94;50.61
43312;BME280;30041;48.300;16.352;2023-07-16T12:13:06;99665.28;;;26.91;50.86
43312;BME280;30041;48.300;16.352;2023-07-16T12:15:32;99661.75;;;26.90;50.75
43312;BME280;30041;48.300;16.352;2023-07-16T12:17:57;99658.47;;;26.94;50.87
43312;BME280;30041;48.300;16.352;2023-07-16T12:20:23;99659.81;;;27.06;50.34
43312;BME280;30041;48.300;16.352;2023-07-16T12:22:49;99649.50;;;27.08;49.79
43312;BME280;30041;48.300;16.352;2023-07-16T12:25:18;99641.03;;;27.10;50.21
43312;BME280;30041;48.300;16.352;2023-07-16T12:27:45;99648.66;;;27.18;49.96
43312;BME280;30041;48.300;16.352;2023-07-16T12:30:13;99644.28;;;27.27;50.48
43312;BME280;30041;48.300;16.352;2023-07-16T12:32:39;99646.75;;;27.29;49.87
43312;BME280;30041;48.300;16.352;2023-07-16T12:35:04;99650.84;;;27.26;49.88
43312;BME280;30041;48.300;16.352;2023-07-16T12:37:30;99648.66;;;27.28;49.96
43312;BME280;30041;48.300;16.352;2023-07-16T12:39:56;99647.00;;;27.27;49.85
43312;BME280;30041;48.300;16.352;2023-07-16T12:42:21;99642.94;;;27.25;50.02
43312;BME280;30041;48.300;16.352;2023-07-16T12:44:47;99646.22;;;27.27;50.00
43312;BME280;30041;48.300;16.352;2023-07-16T12:47:12;99643.75;;;27.25;50.14
43312;BME280;30041;48.300;16.352;2023-07-16T12:49:38;99649.19;;;27.25;49.78